sensor_id;sensor_type;location;lat;lon;timestamp;P1;durP1;ratioP1;P2;durP2;ratioP2
78740;SDS011;68062;48.726;9.370;2023-03-01T00:00:04;14.03;;;9.93;;
78740;SDS011;68062;48.726;9.370;2023-03-01T00:02:32;14.70;;;9.10;;
78740;SDS011;68062;48.726;9.370;2023-03-01T00:04:58;14.60;;;9.10;;
78740;SDS011;68062;48.726;9.370;2023-03-01T00:07:24;13.03;;;8.43;;
78740;SDS011;68062;48.726;9.370;2023-03-01T00:09:51;14.10;;;10.33;;
78740;SDS011;68062;48.726;9.370;2023-03-01T00:12:19;11.43;;;8.80;;
78740;SDS011;68062;48.726;9.370;2023-03-01T00:14:45;11.03;;;8.87;;
78740;SDS011;68062;48.726;9.370;2023-03-01T00:17:12;14.50;;;10.20;;
78740;SDS011;68062;48.726;9.370;2023-03-01T00:19:39;11.93;;;9.50;;
78740;SDS011;68062;48.726;9.370;2023-03-01T00:22:05;11.80;;;9.10;;
78740;SDS011;68062;48.726;9.370;2023-03-01T00:24:32;19.93;;;10.87;;
78740;SDS011;68062;48.726;9.370;2023-03-01T00:26:58;20.10;;;11.57;;
78740;SDS011;68062;48.726;9.370;2023-03-01T00:29:26;19.67;;;12.90;;
78740;SDS011;68062;48.726;9.370;2023-03-01T00:31:52;19.50;;;12.10;;
78740;SDS011;68062;48.726;9.370;2023-03-01T00:34:19;18.47;;;10.57;;
78740;SDS011;68062;48.726;9.370;2023-03-01T00:36:45;15.60;;;10.13;;
78740;SDS011;68062;48.726;9.370;2023-03-01T00:39:12;21.20;;;12.10;;
78740;SDS011;68062;48.726;9.370;2023-03-01T00:41:40;16.80;;;10.67;;
78740;SDS011;68062;48.726;9.370;2023-03-01T00:44:08;16.27;;;10.90;;
78740;SDS011;68062;48.726;9.370;2023-03-01T00:46:36;14.70;;;9.50;;
78740;SDS011;68062;48.726;9.370;2023-03-01T00:49:02;16.40;;;9.73;;
78740;SDS011;68062;48.726;9.370;2023-03-01T00:51:29;14.07;;;9.50;;
78740;SDS011;68062;48.726;9.370;2023-03-01T00:53:57;18.60;;;10.87;;
78740;SDS011;68062;48.726;9.370;2023-03-01T00:56:25;14.97;;;9.40;;
78740;SDS011;68062;48.726;9.370;2023-03-01T00:58:52;17.60;;;10.17;;
78740;SDS011;68062;48.726;9.370;2023-03-01T01:01:19;16.50;;;10.30;;
78740;SDS011;68062;48.726;9.370;2023-03-01T01:03:49;13.80;;;9.63;;
78740;SDS011;68062;48.726;9.370;2023-03-01T01:06:17;16.63;;;9.80;;
78740;SDS011;68062;48.726;9.370;2023-03-01T01:08:45;18.67;;;11.33;;
78740;SDS011;68062;48.726;9.370;2023-03-01T01:11:12;15.03;;;9.57;;
78740;SDS011;68062;48.726;9.370;2023-03-01T01:13:39;13.30;;;10.10;;
78740;SDS011;68062;48.726;9.370;2023-03-01T01:16:06;13.80;;;10.00;;
78740;SDS011;68062;48.726;9.370;2023-03-01T01:18:34;14.13;;;9.27;;
78740;SDS011;68062;48.726;9.370;2023-03-01T01:21:05;16.73;;;9.93;;
78740;SDS011;68062;48.726;9.370;2023-03-01T01:23:34;16.03;;;10.43;;
78740;SDS011;68062;48.726;9.370;2023-03-01T01:26:04;11.50;;;8.90;;
78740;SDS011;68062;48.726;9.370;2023-03-01T01:28:31;18.43;;;9.60;;
78740;SDS011;68062;48.726;9.370;2023-03-01T01:30:58;14.53;;;10.00;;
78740;SDS011;68062;48.726;9.370;2023-03-01T01:33:24;15.47;;;10.53;;
78740;SDS011;68062;48.726;9.370;2023-03-01T01:35:51;14.10;;;10.10;;
78740;SDS011;68062;48.726;9.370;2023-03-01T01:38:19;15.20;;;10.20;;
78740;SDS011;68062;48.726;9.370;2023-03-01T01:40:47;18.40;;;11.43;;
78740;SDS011;68062;48.726;9.370;2023-03-01T01:43:16;19.13;;;10.63;;
78740;SDS011;68062;48.726;9.370;2023-03-01T01:45:47;18.93;;;11.03;;
78740;SDS011;68062;48.726;9.370;2023-03-01T01:48:14;16.27;;;9.63;;
78740;SDS011;68062;48.726;9.370;2023-03-01T01:50:44;14.47;;;10.60;;
78740;SDS011;68062;48.726;9.370;2023-03-01T01:53:14;19.20;;;11.97;;
78740;SDS011;68062;48.726;9.370;2023-03-01T01:55:45;16.07;;;10.77;;
78740;SDS011;68062;48.726;9.370;2023-03-01T01:58:17;13.67;;;9.57;;
78740;SDS011;68062;48.726;9.370;2023-03-01T02:00:47;15.77;;;11.20;;
78740;SDS011;68062;48.726;9.370;2023-03-01T02:03:15;16.17;;;9.57;;
78740;SDS011;68062;48.726;9.370;2023-03-01T02:05:47;13.67;;;9.77;;
78740;SDS011;68062;48.726;9.370;2023-03-01T02:08:18;13.63;;;9.03;;
78740;SDS011;68062;48.726;9.370;2023-03-01T02:10:47;15.87;;;10.20;;
78740;SDS011;68062;48.726;9.370;2023-03-01T02:13:15;18.07;;;10.70;;
78740;SDS011;68062;48.726;9.370;2023-03-01T02:15:42;14.53;;;9.70;;
78740;SDS011;68062;48.726;9.370;2023-03-01T02:18:10;14.73;;;9.60;;
78740;SDS011;68062;48.726;9.370;2023-03-01T02:20:41;14.20;;;9.97;;
78740;SDS011;68062;48.726;9.370;2023-03-01T02:23:16;16.10;;;10.67;;
78740;SDS011;68062;48.726;9.370;2023-03-01T02:25:46;13.37;;;10.93;;
78740;SDS011;68062;48.726;9.370;2023-03-01T02:28:23;16.73;;;10.27;;
78740;SDS011;68062;48.726;9.370;2023-03-01T02:30:51;15.60;;;10.07;;
78740;SDS011;68062;48.726;9.370;2023-03-01T02:33:37;14.43;;;9.33;;
78740;SDS011;68062;48.726;9.370;2023-03-01T02:36:06;12.83;;;9.63;;
78740;SDS011;68062;48.726;9.370;2023-03-01T02:38:36;19.50;;;10.20;;
78740;SDS011;68062;48.726;9.370;2023-03-01T02:41:03;15.50;;;9.70;;
78740;SDS011;68062;48.726;9.370;2023-03-01T02:43:33;16.47;;;10.57;;
78740;SDS011;68062;48.726;9.370;2023-03-01T02:46:02;19.50;;;12.13;;
78740;SDS011;68062;48.726;9.370;2023-03-01T02:48:38;23.30;;;12.67;;
78740;SDS011;68062;48.726;9.370;2023-03-01T02:51:07;16.30;;;10.67;;
78740;SDS011;68062;48.726;9.370;2023-03-01T02:53:41;14.80;;;10.03;;
78740;SDS011;68062;48.726;9.370;2023-03-01T02:56:18;16.87;;;10.40;;
78740;SDS011;68062;48.726;9.370;2023-03-01T02:58:45;18.80;;;10.67;;
78740;SDS011;68062;48.726;9.370;2023-03-01T03:01:16;16.37;;;10.10;;
78740;SDS011;68062;48.726;9.370;2023-03-01T03:03:43;16.37;;;11.60;;
78740;SDS011;68062;48.726;9.370;2023-03-01T03:06:10;15.37;;;9.93;;
78740;SDS011;68062;48.726;9.370;2023-03-01T03:08:37;17.90;;;10.97;;
78740;SDS011;68062;48.726;9.370;2023-03-01T03:11:04;17.10;;;12.57;;
78740;SDS011;68062;48.726;9.370;2023-03-01T03:13:30;15.80;;;10.23;;
78740;SDS011;68062;48.726;9.370;2023-03-01T03:15:58;15.17;;;10.40;;
78740;SDS011;68062;48.726;9.370;2023-03-01T03:18:25;14.03;;;10.80;;
78740;SDS011;68062;48.726;9.370;2023-03-01T03:20:51;14.87;;;10.97;;
78740;SDS011;68062;48.726;9.370;2023-03-01T03:23:19;18.23;;;10.87;;
78740;SDS011;68062;48.726;9.370;2023-03-01T03:25:47;16.27;;;11.10;;
78740;SDS011;68062;48.726;9.370;2023-03-01T03:28:14;14.60;;;10.07;;
78740;SDS011;68062;48.726;9.370;2023-03-01T03:30:41;15.57;;;10.67;;
78740;SDS011;68062;48.726;9.370;2023-03-01T03:33:10;17.20;;;10.87;;
78740;SDS011;68062;48.726;9.370;2023-03-01T03:35:38;19.27;;;13.40;;
78740;SDS011;68062;48.726;9.370;2023-03-01T03:38:07;18.83;;;11.23;;
78740;SDS011;68062;48.726;9.370;2023-03-01T03:40:41;13.73;;;10.60;;
78740;SDS011;68062;48.726;9.370;2023-03-01T03:43:09;17.27;;;11.67;;
78740;SDS011;68062;48.726;9.370;2023-03-01T03:45:38;16.40;;;11.20;;
78740;SDS011;68062;48.726;9.370;2023-03-01T03:48:05;20.00;;;12.03;;
78740;SDS011;68062;48.726;9.370;2023-03-01T03:50:34;16.97;;;12.43;;
78740;SDS011;68062;48.726;9.370;2023-03-01T03:53:01;19.33;;;11.50;;
78740;SDS011;68062;48.726;9.370;2023-03-01T03:55:29;16.53;;;11.27;;
78740;SDS011;68062;48.726;9.370;2023-03-01T03:57:57;16.00;;;10.87;;
78740;SDS011;68062;48.726;9.370;2023-03-01T04:00:27;16.47;;;11.70;;
78740;SDS011;68062;48.726;9.370;2023-03-01T04:02:54;15.30;;;11.33;;
78740;SDS011;68062;48.726;9.370;2023-03-01T04:05:21;19.03;;;12.53;;
78740;SDS011;68062;48.726;9.370;2023-03-01T04:07:49;18.77;;;12.07;;
78740;SDS011;68062;48.726;9.370;2023-03-01T04:10:26;15.20;;;10.23;;
78740;SDS011;68062;48.726;9.370;2023-03-01T04:12:53;22.60;;;14.13;;
78740;SDS011;68062;48.726;9.370;2023-03-01T04:15:21;19.87;;;12.50;;
78740;SDS011;68062;48.726;9.370;2023-03-01T04:17:49;19.77;;;11.93;;
78740;SDS011;68062;48.726;9.370;2023-03-01T04:20:18;20.87;;;12.60;;
78740;SDS011;68062;48.726;9.370;2023-03-01T04:22:52;17.43;;;11.43;;
78740;SDS011;68062;48.726;9.370;2023-03-01T04:25:23;15.00;;;11.13;;
78740;SDS011;68062;48.726;9.370;2023-03-01T04:27:50;17.10;;;10.97;;
78740;SDS011;68062;48.726;9.370;2023-03-01T04:30:16;16.30;;;11.17;;
78740;SDS011;68062;48.726;9.370;2023-03-01T04:32:43;17.20;;;11.17;;
78740;SDS011;68062;48.726;9.370;2023-03-01T04:35:09;15.10;;;10.90;;
78740;SDS011;68062;48.726;9.370;2023-03-01T04:37:36;17.90;;;12.00;;
78740;SDS011;68062;48.726;9.370;2023-03-01T04:40:04;19.67;;;11.67;;
78740;SDS011;68062;48.726;9.370;2023-03-01T04:42:41;18.83;;;12.07;;
78740;SDS011;68062;48.726;9.370;2023-03-01T04:45:08;19.00;;;12.07;;
78740;SDS011;68062;48.726;9.370;2023-03-01T04:47:38;19.80;;;10.80;;
78740;SDS011;68062;48.726;9.370;2023-03-01T04:50:05;19.77;;;12.20;;
78740;SDS011;68062;48.726;9.370;2023-03-01T04:52:32;22.97;;;12.03;;
78740;SDS011;68062;48.726;9.370;2023-03-01T04:54:59;15.93;;;11.10;;
78740;SDS011;68062;48.726;9.370;2023-03-01T04:57:27;14.70;;;11.20;;
78740;SDS011;68062;48.726;9.370;2023-03-01T04:59:53;23.13;;;12.50;;
78740;SDS011;68062;48.726;9.370;2023-03-01T05:02:20;19.80;;;11.30;;
78740;SDS011;68062;48.726;9.370;2023-03-01T05:04:46;22.30;;;12.90;;
78740;SDS011;68062;48.726;9.370;2023-03-01T05:07:13;18.13;;;12.63;;
78740;SDS011;68062;48.726;9.370;2023-03-01T05:09:44;14.37;;;10.20;;
78740;SDS011;68062;48.726;9.370;2023-03-01T05:12:11;16.57;;;11.20;;
78740;SDS011;68062;48.726;9.370;2023-03-01T05:14:39;19.70;;;12.00;;
78740;SDS011;68062;48.726;9.370;2023-03-01T05:17:06;21.03;;;12.20;;
78740;SDS011;68062;48.726;9.370;2023-03-01T05:19:33;17.93;;;12.40;;
78740;SDS011;68062;48.726;9.370;2023-03-01T05:22:00;19.77;;;11.90;;
78740;SDS011;68062;48.726;9.370;2023-03-01T05:24:30;23.27;;;13.13;;
78740;SDS011;68062;48.726;9.370;2023-03-01T05:26:58;16.43;;;11.70;;
78740;SDS011;68062;48.726;9.370;2023-03-01T05:29:25;17.33;;;12.83;;
78740;SDS011;68062;48.726;9.370;2023-03-01T05:31:55;22.10;;;13.00;;
78740;SDS011;68062;48.726;9.370;2023-03-01T05:34:24;19.83;;;13.43;;
78740;SDS011;68062;48.726;9.370;2023-03-01T05:36:50;19.77;;;11.67;;
78740;SDS011;68062;48.726;9.370;2023-03-01T05:39:18;22.77;;;12.23;;
78740;SDS011;68062;48.726;9.370;2023-03-01T05:41:46;20.43;;;12.57;;
78740;SDS011;68062;48.726;9.370;2023-03-01T05:44:12;17.73;;;12.50;;
78740;SDS011;68062;48.726;9.370;2023-03-01T05:46:39;18.20;;;12.90;;
78740;SDS011;68062;48.726;9.370;2023-03-01T05:49:07;17.50;;;11.63;;
78740;SDS011;68062;48.726;9.370;2023-03-01T05:51:33;17.80;;;12.23;;
78740;SDS011;68062;48.726;9.370;2023-03-01T05:54:00;16.73;;;11.10;;
78740;SDS011;68062;48.726;9.370;2023-03-01T05:56:26;16.80;;;10.97;;
78740;SDS011;68062;48.726;9.370;2023-03-01T05:58:54;17.93;;;12.20;;
78740;SDS011;68062;48.726;9.370;2023-03-01T06:01:20;19.40;;;12.00;;
78740;SDS011;68062;48.726;9.370;2023-03-01T06:03:47;21.77;;;11.77;;
78740;SDS011;68062;48.726;9.370;2023-03-01T06:06:14;19.67;;;12.73;;
78740;SDS011;68062;48.726;9.370;2023-03-01T06:08:41;18.90;;;12.83;;
78740;SDS011;68062;48.726;9.370;2023-03-01T06:11:07;21.53;;;13.70;;
78740;SDS011;68062;48.726;9.370;2023-03-01T06:13:34;20.90;;;12.30;;
78740;SDS011;68062;48.726;9.370;2023-03-01T06:16:00;17.20;;;12.33;;
78740;SDS011;68062;48.726;9.370;2023-03-01T06:18:27;20.47;;;13.10;;
78740;SDS011;68062;48.726;9.370;2023-03-01T06:20:53;19.53;;;12.23;;
78740;SDS011;68062;48.726;9.370;2023-03-01T06:23:21;15.47;;;11.47;;
78740;SDS011;68062;48.726;9.370;2023-03-01T06:25:48;22.70;;;12.73;;
78740;SDS011;68062;48.726;9.370;2023-03-01T06:28:15;20.77;;;10.80;;
78740;SDS011;68062;48.726;9.370;2023-03-01T06:30:42;18.30;;;11.43;;
78740;SDS011;68062;48.726;9.370;2023-03-01T06:33:09;19.60;;;12.07;;
78740;SDS011;68062;48.726;9.370;2023-03-01T06:35:36;23.67;;;12.87;;
78740;SDS011;68062;48.726;9.370;2023-03-01T06:38:03;16.13;;;11.70;;
78740;SDS011;68062;48.726;9.370;2023-03-01T06:40:32;20.57;;;12.70;;
78740;SDS011;68062;48.726;9.370;2023-03-01T06:43:00;21.90;;;12.63;;
78740;SDS011;68062;48.726;9.370;2023-03-01T06:45:27;18.93;;;12.10;;
78740;SDS011;68062;48.726;9.370;2023-03-01T06:48:00;17.67;;;11.40;;
78740;SDS011;68062;48.726;9.370;2023-03-01T06:50:27;20.97;;;12.60;;
78740;SDS011;68062;48.726;9.370;2023-03-01T06:52:56;18.83;;;12.70;;
78740;SDS011;68062;48.726;9.370;2023-03-01T06:55:22;19.83;;;12.90;;
78740;SDS011;68062;48.726;9.370;2023-03-01T06:57:54;17.13;;;12.50;;
78740;SDS011;68062;48.726;9.370;2023-03-01T07:00:22;15.57;;;11.00;;
78740;SDS011;68062;48.726;9.370;2023-03-01T07:02:49;22.77;;;12.40;;
78740;SDS011;68062;48.726;9.370;2023-03-01T07:05:15;20.70;;;12.63;;
78740;SDS011;68062;48.726;9.370;2023-03-01T07:07:42;28.83;;;12.20;;
78740;SDS011;68062;48.726;9.370;2023-03-01T07:10:11;19.40;;;12.53;;
78740;SDS011;68062;48.726;9.370;2023-03-01T07:12:38;19.80;;;12.17;;
78740;SDS011;68062;48.726;9.370;2023-03-01T07:15:08;18.53;;;13.10;;
78740;SDS011;68062;48.726;9.370;2023-03-01T07:17:39;24.13;;;12.70;;
78740;SDS011;68062;48.726;9.370;2023-03-01T07:20:06;16.73;;;12.40;;
78740;SDS011;68062;48.726;9.370;2023-03-01T07:22:33;22.90;;;14.00;;
78740;SDS011;68062;48.726;9.370;2023-03-01T07:25:00;21.07;;;12.37;;
78740;SDS011;68062;48.726;9.370;2023-03-01T07:27:26;19.43;;;11.97;;
78740;SDS011;68062;48.726;9.370;2023-03-01T07:29:53;19.27;;;12.63;;
78740;SDS011;68062;48.726;9.370;2023-03-01T07:32:20;22.07;;;13.40;;
78740;SDS011;68062;48.726;9.370;2023-03-01T07:34:47;19.17;;;13.27;;
78740;SDS011;68062;48.726;9.370;2023-03-01T07:37:13;20.63;;;13.20;;
78740;SDS011;68062;48.726;9.370;2023-03-01T07:39:40;23.70;;;13.30;;
78740;SDS011;68062;48.726;9.370;2023-03-01T07:42:06;20.50;;;12.60;;
78740;SDS011;68062;48.726;9.370;2023-03-01T07:44:33;17.70;;;11.93;;
78740;SDS011;68062;48.726;9.370;2023-03-01T07:47:00;17.20;;;11.93;;
78740;SDS011;68062;48.726;9.370;2023-03-01T07:49:28;19.37;;;12.50;;
78740;SDS011;68062;48.726;9.370;2023-03-01T07:51:54;19.43;;;12.20;;
78740;SDS011;68062;48.726;9.370;2023-03-01T07:54:21;16.17;;;12.40;;
78740;SDS011;68062;48.726;9.370;2023-03-01T07:56:47;23.63;;;12.20;;
78740;SDS011;68062;48.726;9.370;2023-03-01T07:59:14;22.97;;;14.30;;
78740;SDS011;68062;48.726;9.370;2023-03-01T08:01:40;19.63;;;12.37;;
78740;SDS011;68062;48.726;9.370;2023-03-01T08:04:07;21.23;;;13.70;;
78740;SDS011;68062;48.726;9.370;2023-03-01T08:06:35;15.80;;;12.30;;
78740;SDS011;68062;48.726;9.370;2023-03-01T08:09:02;24.67;;;14.43;;
78740;SDS011;68062;48.726;9.370;2023-03-01T08:11:28;21.93;;;14.50;;
78740;SDS011;68062;48.726;9.370;2023-03-01T08:13:55;18.37;;;12.13;;
78740;SDS011;68062;48.726;9.370;2023-03-01T08:16:22;20.77;;;12.67;;
78740;SDS011;68062;48.726;9.370;2023-03-01T08:18:49;17.03;;;13.10;;
78740;SDS011;68062;48.726;9.370;2023-03-01T08:21:16;26.03;;;13.17;;
78740;SDS011;68062;48.726;9.370;2023-03-01T08:23:45;20.30;;;11.90;;
78740;SDS011;68062;48.726;9.370;2023-03-01T08:26:12;19.13;;;12.50;;
78740;SDS011;68062;48.726;9.370;2023-03-01T08:28:40;23.43;;;13.40;;
78740;SDS011;68062;48.726;9.370;2023-03-01T08:31:15;20.83;;;11.83;;
78740;SDS011;68062;48.726;9.370;2023-03-01T08:33:43;19.47;;;12.10;;
78740;SDS011;68062;48.726;9.370;2023-03-01T08:36:09;21.80;;;13.40;;
78740;SDS011;68062;48.726;9.370;2023-03-01T08:38:36;25.83;;;14.13;;
78740;SDS011;68062;48.726;9.370;2023-03-01T08:41:04;25.30;;;13.80;;
78740;SDS011;68062;48.726;9.370;2023-03-01T08:43:30;22.97;;;14.47;;
78740;SDS011;68062;48.726;9.370;2023-03-01T08:45:57;21.37;;;15.43;;
78740;SDS011;68062;48.726;9.370;2023-03-01T08:48:24;19.13;;;13.03;;
78740;SDS011;68062;48.726;9.370;2023-03-01T08:50:50;16.13;;;11.67;;
78740;SDS011;68062;48.726;9.370;2023-03-01T08:53:17;20.77;;;13.90;;
78740;SDS011;68062;48.726;9.370;2023-03-01T08:55:43;18.90;;;12.10;;
78740;SDS011;68062;48.726;9.370;2023-03-01T08:58:11;21.50;;;13.97;;
78740;SDS011;68062;48.726;9.370;2023-03-01T09:00:37;17.60;;;12.13;;
78740;SDS011;68062;48.726;9.370;2023-03-01T09:03:05;19.57;;;11.90;;
78740;SDS011;68062;48.726;9.370;2023-03-01T09:05:32;21.50;;;13.07;;
78740;SDS011;68062;48.726;9.370;2023-03-01T09:07:59;19.00;;;11.70;;
78740;SDS011;68062;48.726;9.370;2023-03-01T09:10:25;21.70;;;13.37;;
78740;SDS011;68062;48.726;9.370;2023-03-01T09:12:52;19.93;;;13.10;;
78740;SDS011;68062;48.726;9.370;2023-03-01T09:15:20;17.67;;;13.30;;
78740;SDS011;68062;48.726;9.370;2023-03-01T09:17:46;20.77;;;14.07;;
78740;SDS011;68062;48.726;9.370;2023-03-01T09:20:13;20.60;;;12.27;;
78740;SDS011;68062;48.726;9.370;2023-03-01T09:22:39;23.10;;;13.63;;
78740;SDS011;68062;48.726;9.370;2023-03-01T09:25:06;19.23;;;12.63;;
78740;SDS011;68062;48.726;9.370;2023-03-01T09:27:33;19.03;;;13.50;;
78740;SDS011;68062;48.726;9.370;2023-03-01T09:29:59;20.77;;;12.73;;
78740;SDS011;68062;48.726;9.370;2023-03-01T09:32:28;17.93;;;12.83;;
78740;SDS011;68062;48.726;9.370;2023-03-01T09:34:56;24.60;;;14.20;;
78740;SDS011;68062;48.726;9.370;2023-03-01T09:37:29;20.53;;;13.70;;
78740;SDS011;68062;48.726;9.370;2023-03-01T09:39:56;18.57;;;12.00;;
78740;SDS011;68062;48.726;9.370;2023-03-01T09:42:23;15.43;;;12.33;;
78740;SDS011;68062;48.726;9.370;2023-03-01T09:44:51;22.63;;;13.67;;
78740;SDS011;68062;48.726;9.370;2023-03-01T09:47:22;20.63;;;12.07;;
78740;SDS011;68062;48.726;9.370;2023-03-01T09:49:57;18.07;;;12.87;;
78740;SDS011;68062;48.726;9.370;2023-03-01T09:52:29;17.17;;;13.13;;
78740;SDS011;68062;48.726;9.370;2023-03-01T09:55:00;22.97;;;14.40;;
78740;SDS011;68062;48.726;9.370;2023-03-01T09:57:29;19.30;;;11.73;;
78740;SDS011;68062;48.726;9.370;2023-03-01T10:00:08;19.60;;;13.07;;
78740;SDS011;68062;48.726;9.370;2023-03-01T10:02:43;17.37;;;12.00;;
78740;SDS011;68062;48.726;9.370;2023-03-01T10:05:18;20.93;;;12.90;;
78740;SDS011;68062;48.726;9.370;2023-03-01T10:07:54;20.77;;;13.60;;
78740;SDS011;68062;48.726;9.370;2023-03-01T10:10:33;22.13;;;13.00;;
78740;SDS011;68062;48.726;9.370;2023-03-01T10:13:03;18.80;;;14.00;;
78740;SDS011;68062;48.726;9.370;2023-03-01T10:15:38;25.90;;;11.93;;
78740;SDS011;68062;48.726;9.370;2023-03-01T10:18:09;22.23;;;12.70;;
78740;SDS011;68062;48.726;9.370;2023-03-01T10:20:45;25.20;;;14.20;;
78740;SDS011;68062;48.726;9.370;2023-03-01T10:23:18;22.93;;;13.57;;
78740;SDS011;68062;48.726;9.370;2023-03-01T10:25:47;18.80;;;12.60;;
78740;SDS011;68062;48.726;9.370;2023-03-01T10:28:25;18.23;;;12.10;;
78740;SDS011;68062;48.726;9.370;2023-03-01T10:30:57;19.70;;;12.50;;
78740;SDS011;68062;48.726;9.370;2023-03-01T10:33:26;18.37;;;11.40;;
78740;SDS011;68062;48.726;9.370;2023-03-01T10:35:56;20.67;;;12.00;;
78740;SDS011;68062;48.726;9.370;2023-03-01T10:38:23;20.43;;;12.60;;
78740;SDS011;68062;48.726;9.370;2023-03-01T10:40:51;19.80;;;14.17;;
78740;SDS011;68062;48.726;9.370;2023-03-01T10:43:20;19.10;;;12.10;;
78740;SDS011;68062;48.726;9.370;2023-03-01T10:45:47;20.40;;;12.93;;
78740;SDS011;68062;48.726;9.370;2023-03-01T10:48:15;19.47;;;11.97;;
78740;SDS011;68062;48.726;9.370;2023-03-01T10:50:43;18.67;;;12.83;;
78740;SDS011;68062;48.726;9.370;2023-03-01T10:53:23;22.30;;;13.50;;
78740;SDS011;68062;48.726;9.370;2023-03-01T10:55:58;19.43;;;12.47;;
78740;SDS011;68062;48.726;9.370;2023-03-01T10:58:27;17.03;;;10.83;;
78740;SDS011;68062;48.726;9.370;2023-03-01T11:00:55;16.90;;;12.03;;
78740;SDS011;68062;48.726;9.370;2023-03-01T11:03:23;15.53;;;12.27;;
78740;SDS011;68062;48.726;9.370;2023-03-01T11:05:52;18.20;;;11.93;;
78740;SDS011;68062;48.726;9.370;2023-03-01T11:08:35;17.17;;;12.07;;
78740;SDS011;68062;48.726;9.370;2023-03-01T11:11:04;18.43;;;11.80;;
78740;SDS011;68062;48.726;9.370;2023-03-01T11:13:33;21.50;;;13.00;;
78740;SDS011;68062;48.726;9.370;2023-03-01T11:16:01;20.70;;;12.90;;
78740;SDS011;68062;48.726;9.370;2023-03-01T11:18:31;17.43;;;11.27;;
78740;SDS011;68062;48.726;9.370;2023-03-01T11:20:58;23.70;;;13.03;;
78740;SDS011;68062;48.726;9.370;2023-03-01T11:23:27;16.43;;;10.90;;
78740;SDS011;68062;48.726;9.370;2023-03-01T11:25:58;18.60;;;11.97;;
78740;SDS011;68062;48.726;9.370;2023-03-01T11:28:28;17.27;;;10.63;;
78740;SDS011;68062;48.726;9.370;2023-03-01T11:30:57;19.00;;;11.70;;
78740;SDS011;68062;48.726;9.370;2023-03-01T11:33:33;19.60;;;12.73;;
78740;SDS011;68062;48.726;9.370;2023-03-01T11:36:05;18.87;;;12.10;;
78740;SDS011;68062;48.726;9.370;2023-03-01T11:38:37;20.10;;;13.10;;
78740;SDS011;68062;48.726;9.370;2023-03-01T11:41:12;20.77;;;13.30;;
78740;SDS011;68062;48.726;9.370;2023-03-01T11:43:48;24.33;;;12.37;;
78740;SDS011;68062;48.726;9.370;2023-03-01T11:46:32;18.57;;;11.10;;
78740;SDS011;68062;48.726;9.370;2023-03-01T11:49:14;17.17;;;11.50;;
78740;SDS011;68062;48.726;9.370;2023-03-01T11:51:58;22.43;;;13.00;;
78740;SDS011;68062;48.726;9.370;2023-03-01T11:54:37;17.63;;;11.53;;
78740;SDS011;68062;48.726;9.370;2023-03-01T11:57:27;17.90;;;11.80;;
78740;SDS011;68062;48.726;9.370;2023-03-01T12:00:24;18.37;;;12.00;;
78740;SDS011;68062;48.726;9.370;2023-03-01T12:06:12;23.53;;;13.03;;
78740;SDS011;68062;48.726;9.370;2023-03-01T12:08:50;17.03;;;10.70;;
78740;SDS011;68062;48.726;9.370;2023-03-01T12:11:29;17.53;;;10.67;;
78740;SDS011;68062;48.726;9.370;2023-03-01T12:14:16;16.40;;;11.10;;
78740;SDS011;68062;48.726;9.370;2023-03-01T12:16:59;16.10;;;10.60;;
78740;SDS011;68062;48.726;9.370;2023-03-01T12:19:53;17.60;;;11.57;;
78740;SDS011;68062;48.726;9.370;2023-03-01T12:22:29;17.97;;;12.97;;
78740;SDS011;68062;48.726;9.370;2023-03-01T12:25:00;14.73;;;11.77;;
78740;SDS011;68062;48.726;9.370;2023-03-01T12:27:46;17.17;;;10.83;;
78740;SDS011;68062;48.726;9.370;2023-03-01T12:30:37;14.37;;;10.60;;
78740;SDS011;68062;48.726;9.370;2023-03-01T12:33:17;17.47;;;11.00;;
78740;SDS011;68062;48.726;9.370;2023-03-01T12:38:56;17.80;;;11.53;;
78740;SDS011;68062;48.726;9.370;2023-03-01T12:41:37;18.93;;;12.27;;
78740;SDS011;68062;48.726;9.370;2023-03-01T12:44:15;18.33;;;11.20;;
78740;SDS011;68062;48.726;9.370;2023-03-01T12:46:57;17.73;;;11.73;;
78740;SDS011;68062;48.726;9.370;2023-03-01T12:49:33;17.70;;;11.83;;
78740;SDS011;68062;48.726;9.370;2023-03-01T12:52:09;18.43;;;12.40;;
78740;SDS011;68062;48.726;9.370;2023-03-01T12:54:39;19.53;;;13.53;;
78740;SDS011;68062;48.726;9.370;2023-03-01T12:57:08;19.40;;;12.37;;
78740;SDS011;68062;48.726;9.370;2023-03-01T12:59:41;17.57;;;12.43;;
78740;SDS011;68062;48.726;9.370;2023-03-01T13:02:22;21.67;;;13.37;;
78740;SDS011;68062;48.726;9.370;2023-03-01T13:04:53;18.27;;;12.83;;
78740;SDS011;68062;48.726;9.370;2023-03-01T13:07:37;15.60;;;10.70;;
78740;SDS011;68062;48.726;9.370;2023-03-01T13:10:11;19.50;;;12.37;;
78740;SDS011;68062;48.726;9.370;2023-03-01T13:12:55;16.27;;;12.70;;
78740;SDS011;68062;48.726;9.370;2023-03-01T13:15:29;15.80;;;10.80;;
78740;SDS011;68062;48.726;9.370;2023-03-01T13:17:59;16.30;;;11.90;;
78740;SDS011;68062;48.726;9.370;2023-03-01T13:20:29;19.17;;;12.37;;
78740;SDS011;68062;48.726;9.370;2023-03-01T13:23:03;16.33;;;10.60;;
78740;SDS011;68062;48.726;9.370;2023-03-01T13:25:32;17.40;;;11.57;;
78740;SDS011;68062;48.726;9.370;2023-03-01T13:31:08;19.87;;;12.87;;
78740;SDS011;68062;48.726;9.370;2023-03-01T13:33:44;15.97;;;10.67;;
78740;SDS011;68062;48.726;9.370;2023-03-01T13:36:13;16.63;;;11.50;;
78740;SDS011;68062;48.726;9.370;2023-03-01T13:39:30;17.73;;;11.30;;
78740;SDS011;68062;48.726;9.370;2023-03-01T13:42:25;14.57;;;11.20;;
78740;SDS011;68062;48.726;9.370;2023-03-01T13:45:15;15.70;;;11.23;;
78740;SDS011;68062;48.726;9.370;2023-03-01T13:47:46;13.43;;;10.17;;
78740;SDS011;68062;48.726;9.370;2023-03-01T13:50:20;15.60;;;11.93;;
78740;SDS011;68062;48.726;9.370;2023-03-01T13:52:50;15.40;;;11.37;;
78740;SDS011;68062;48.726;9.370;2023-03-01T13:55:23;18.67;;;12.07;;
78740;SDS011;68062;48.726;9.370;2023-03-01T13:57:53;18.43;;;10.60;;
78740;SDS011;68062;48.726;9.370;2023-03-01T14:00:33;16.97;;;9.90;;
78740;SDS011;68062;48.726;9.370;2023-03-01T14:03:02;16.30;;;11.03;;
78740;SDS011;68062;48.726;9.370;2023-03-01T14:05:32;17.07;;;10.27;;
78740;SDS011;68062;48.726;9.370;2023-03-01T14:08:00;14.77;;;9.53;;
78740;SDS011;68062;48.726;9.370;2023-03-01T14:10:31;15.23;;;10.27;;
78740;SDS011;68062;48.726;9.370;2023-03-01T14:13:08;13.67;;;10.10;;
78740;SDS011;68062;48.726;9.370;2023-03-01T14:15:50;15.03;;;10.23;;
78740;SDS011;68062;48.726;9.370;2023-03-01T14:18:32;17.43;;;10.70;;
78740;SDS011;68062;48.726;9.370;2023-03-01T14:21:08;16.00;;;10.90;;
78740;SDS011;68062;48.726;9.370;2023-03-01T14:23:34;15.83;;;10.07;;
78740;SDS011;68062;48.726;9.370;2023-03-01T14:26:07;17.90;;;11.83;;
78740;SDS011;68062;48.726;9.370;2023-03-01T14:28:36;16.13;;;10.57;;
78740;SDS011;68062;48.726;9.370;2023-03-01T14:33:57;16.13;;;11.00;;
78740;SDS011;68062;48.726;9.370;2023-03-01T14:36:27;14.40;;;10.23;;
78740;SDS011;68062;48.726;9.370;2023-03-01T14:38:55;16.00;;;11.70;;
78740;SDS011;68062;48.726;9.370;2023-03-01T14:41:23;14.80;;;10.90;;
78740;SDS011;68062;48.726;9.370;2023-03-01T14:43:55;13.37;;;10.50;;
78740;SDS011;68062;48.726;9.370;2023-03-01T14:46:24;16.30;;;11.40;;
78740;SDS011;68062;48.726;9.370;2023-03-01T14:48:56;17.90;;;11.47;;
78740;SDS011;68062;48.726;9.370;2023-03-01T14:51:28;14.07;;;11.00;;